sensor_id;sensor_type;location;lat;lon;timestamp;pressure;altitude;pressure_sealevel;temperature;humidity
42603;BME280;28233;55.748;48.752;2023-12-07T00:01:42;101159.53;;;-14.73;83.89
42603;BME280;28233;55.748;48.752;2023-12-07T00:03:45;101161.22;;;-14.72;84.26
42603;BME280;28233;55.748;48.752;2023-12-07T00:05:48;101167.00;;;-14.66;84.22
42603;BME280;28233;55.748;48.752;2023-12-07T00:07:51;101169.38;;;-14.63;84.41
42603;BME280;28233;55.748;48.752;2023-12-07T00:09:54;101166.16;;;-14.67;84.47
42603;BME280;28233;55.748;48.752;2023-12-07T00:11:57;101169.50;;;-14.65;84.32
42603;BME280;28233;55.748;48.752;2023-12-07T00:14:00;101180.78;;;-14.63;84.12
42603;BME280;28233;55.748;48.752;2023-12-07T00:16:03;101179.94;;;-14.63;84.33
42603;BME280;28233;55.748;48.752;2023-12-07T00:18:06;101178.88;;;-14.61;84.12
42603;BME280;28233;55.748;48.752;2023-12-07T00:20:09;101177.41;;;-14.65;84.04
42603;BME280;28233;55.748;48.752;2023-12-07T00:22:12;101162.91;;;-14.59;84.58
42603;BME280;28233;55.748;48.752;2023-12-07T00:24:15;101168.94;;;-14.57;84.19
42603;BME280;28233;55.748;48.752;2023-12-07T00:26:18;101173.22;;;-14.56;83.97
42603;BME280;28233;55.748;48.752;2023-12-07T00:28:20;101171.56;;;-14.57;83.86
42603;BME280;28233;55.748;48.752;2023-12-07T00:30:23;101167.38;;;-14.60;83.57
42603;BME280;28233;55.748;48.752;2023-12-07T00:32:26;101182.59;;;-14.63;83.68
42603;BME280;28233;55.748;48.752;2023-12-07T00:34:29;101175.63;;;-14.64;83.45
42603;BME280;28233;55.748;48.752;2023-12-07T00:36:32;101175.00;;;-14.68;83.66
42603;BME280;28233;55.748;48.752;2023-12-07T00:38:36;101187.38;;;-14.68;83.01
42603;BME280;28233;55.748;48.752;2023-12-07T00:40:39;101186.53;;;-14.69;83.27
42603;BME280;28233;55.748;48.752;2023-12-07T00:42:42;101185.56;;;-14.68;83.40
42603;BME280;28233;55.748;48.752;2023-12-07T00:44:45;101185.91;;;-14.73;83.36
42603;BME280;28233;55.748;48.752;2023-12-07T00:46:48;101185.19;;;-14.75;83.53
42603;BME280;28233;55.748;48.752;2023-12-07T00:48:52;101184.47;;;-14.77;83.06
42603;BME280;28233;55.748;48.752;2023-12-07T00:50:54;101184.59;;;-14.78;83.45
42603;BME280;28233;55.748;48.752;2023-12-07T00:52:57;101185.69;;;-14.81;83.23
42603;BME280;28233;55.748;48.752;2023-12-07T00:55:00;101186.75;;;-14.83;83.10
42603;BME280;28233;55.748;48.752;2023-12-07T00:57:13;101191.16;;;-14.84;82.93
42603;BME280;28233;55.748;48.752;2023-12-07T00:59:16;101197.41;;;-14.85;82.97
42603;BME280;28233;55.748;48.752;2023-12-07T01:01:19;101197.41;;;-14.85;83.42
42603;BME280;28233;55.748;48.752;2023-12-07T01:03:22;101194.03;;;-14.87;82.74
42603;BME280;28233;55.748;48.752;2023-12-07T01:05:24;101204.72;;;-14.88;83.14
42603;BME280;28233;55.748;48.752;2023-12-07T01:07:28;101204.84;;;-14.90;82.75
42603;BME280;28233;55.748;48.752;2023-12-07T01:09:31;101207.59;;;-14.92;82.72
42603;BME280;28233;55.748;48.752;2023-12-07T01:11:33;101207.59;;;-14.92;83.07
42603;BME280;28233;55.748;48.752;2023-12-07T01:13:36;101226.03;;;-14.92;82.83
42603;BME280;28233;55.748;48.752;2023-12-07T01:15:39;101221.75;;;-14.93;82.44
42603;BME280;28233;55.748;48.752;2023-12-07T01:17:42;101224.47;;;-14.94;82.51
42603;BME280;28233;55.748;48.752;2023-12-07T01:19:45;101218.38;;;-14.95;83.12
42603;BME280;28233;55.748;48.752;2023-12-07T01:21:47;101213.81;;;-14.93;82.80
42603;BME280;28233;55.748;48.752;2023-12-07T01:23:50;101222.81;;;-14.95;82.58
42603;BME280;28233;55.748;48.752;2023-12-07T01:26:07;101224.09;;;-15.01;81.92
42603;BME280;28233;55.748;48.752;2023-12-07T01:28:10;101235.22;;;-15.08;81.46
42603;BME280;28233;55.748;48.752;2023-12-07T01:30:13;101224.38;;;-15.17;81.46
42603;BME280;28233;55.748;48.752;2023-12-07T01:32:16;101232.13;;;-15.26;81.07
42603;BME280;28233;55.748;48.752;2023-12-07T01:34:19;101225.13;;;-15.39;81.07
42603;BME280;28233;55.748;48.752;2023-12-07T01:36:22;101232.53;;;-15.44;81.71
42603;BME280;28233;55.748;48.752;2023-12-07T01:38:25;101231.91;;;-15.47;81.93
42603;BME280;28233;55.748;48.752;2023-12-07T01:40:28;101223.41;;;-15.51;82.16
42603;BME280;28233;55.748;48.752;2023-12-07T01:42:31;101230.06;;;-15.58;81.83
42603;BME280;28233;55.748;48.752;2023-12-07T01:44:33;101231.47;;;-15.65;82.02
42603;BME280;28233;55.748;48.752;2023-12-07T01:46:36;101239.00;;;-15.72;81.75
42603;BME280;28233;55.748;48.752;2023-12-07T01:48:39;101243.03;;;-15.79;81.49
42603;BME280;28233;55.748;48.752;2023-12-07T01:50:43;101233.75;;;-15.85;81.79
42603;BME280;28233;55.748;48.752;2023-12-07T01:52:47;101228.41;;;-15.96;82.10
42603;BME280;28233;55.748;48.752;2023-12-07T01:54:52;101232.22;;;-16.00;81.86
42603;BME280;28233;55.748;48.752;2023-12-07T01:56:55;101235.38;;;-16.08;82.33
42603;BME280;28233;55.748;48.752;2023-12-07T01:58:58;101241.91;;;-16.13;82.47
42603;BME280;28233;55.748;48.752;2023-12-07T02:01:02;101237.19;;;-16.21;82.87
42603;BME280;28233;55.748;48.752;2023-12-07T02:03:05;101255.94;;;-16.26;82.59
42603;BME280;28233;55.748;48.752;2023-12-07T02:05:08;101254.44;;;-16.30;82.64
42603;BME280;28233;55.748;48.752;2023-12-07T02:07:11;101260.91;;;-16.34;82.59
42603;BME280;28233;55.748;48.752;2023-12-07T02:09:14;101252.25;;;-16.36;82.88
42603;BME280;28233;55.748;48.752;2023-12-07T02:11:17;101256.88;;;-16.40;82.68
42603;BME280;28233;55.748;48.752;2023-12-07T02:13:21;101255.50;;;-16.45;82.63
42603;BME280;28233;55.748;48.752;2023-12-07T02:15:25;101261.84;;;-16.48;82.88
42603;BME280;28233;55.748;48.752;2023-12-07T02:17:52;101264.78;;;-16.52;82.90
42603;BME280;28233;55.748;48.752;2023-12-07T02:20:26;101259.06;;;-16.59;82.77
42603;BME280;28233;55.748;48.752;2023-12-07T02:23:07;101261.19;;;-16.64;82.56
42603;BME280;28233;55.748;48.752;2023-12-07T02:25:07;101264.13;;;-16.69;83.14
42603;BME280;28233;55.748;48.752;2023-12-07T02:27:10;101260.75;;;-16.71;83.25
42603;BME280;28233;55.748;48.752;2023-12-07T02:29:13;101270.31;;;-16.70;83.90
42603;BME280;28233;55.748;48.752;2023-12-07T02:31:16;101262.41;;;-16.70;84.05
42603;BME280;28233;55.748;48.752;2023-12-07T02:33:19;101273.16;;;-16.73;83.63
42603;BME280;28233;55.748;48.752;2023-12-07T02:35:22;101269.78;;;-16.75;83.93
42603;BME280;28233;55.748;48.752;2023-12-07T02:37:27;101280.44;;;-16.76;84.07
42603;BME280;28233;55.748;48.752;2023-12-07T02:39:30;101278.00;;;-16.79;83.70
42603;BME280;28233;55.748;48.752;2023-12-07T02:41:33;101291.28;;;-16.81;83.75
42603;BME280;28233;55.748;48.752;2023-12-07T02:43:38;101290.53;;;-16.83;83.62
42603;BME280;28233;55.748;48.752;2023-12-07T02:45:41;101294.22;;;-16.86;83.51
42603;BME280;28233;55.748;48.752;2023-12-07T02:47:44;101293.56;;;-16.89;83.53
42603;BME280;28233;55.748;48.752;2023-12-07T02:49:48;101305.97;;;-16.91;83.50
42603;BME280;28233;55.748;48.752;2023-12-07T02:51:50;101307.00;;;-16.94;83.72
42603;BME280;28233;55.748;48.752;2023-12-07T02:53:53;101299.22;;;-16.95;83.53
42603;BME280;28233;55.748;48.752;2023-12-07T02:55:56;101304.75;;;-17.00;83.00
42603;BME280;28233;55.748;48.752;2023-12-07T02:57:59;101309.19;;;-17.00;83.32
42603;BME280;28233;55.748;48.752;2023-12-07T03:00:04;101315.59;;;-17.05;83.13
42603;BME280;28233;55.748;48.752;2023-12-07T03:02:10;101313.16;;;-17.08;83.02
42603;BME280;28233;55.748;48.752;2023-12-07T03:04:13;101317.56;;;-17.08;83.65
42603;BME280;28233;55.748;48.752;2023-12-07T03:06:16;101315.16;;;-17.11;83.30
42603;BME280;28233;55.748;48.752;2023-12-07T03:08:19;101320.59;;;-17.14;83.76
42603;BME280;28233;55.748;48.752;2023-12-07T03:10:22;101323.34;;;-17.16;83.93
42603;BME280;28233;55.748;48.752;2023-12-07T03:12:25;101324.38;;;-17.18;83.92
42603;BME280;28233;55.748;48.752;2023-12-07T03:14:28;101341.91;;;-17.19;83.70
42603;BME280;28233;55.748;48.752;2023-12-07T03:16:31;101338.44;;;-17.19;83.83
42603;BME280;28233;55.748;48.752;2023-12-07T03:18:34;101334.22;;;-17.22;83.49
42603;BME280;28233;55.748;48.752;2023-12-07T03:20:37;101343.16;;;-17.24;83.66
42603;BME280;28233;55.748;48.752;2023-12-07T03:22:39;101342.31;;;-17.25;83.80
42603;BME280;28233;55.748;48.752;2023-12-07T03:24:50;101332.66;;;-17.24;84.32
42603;BME280;28233;55.748;48.752;2023-12-07T03:26:53;101334.03;;;-17.19;84.83
42603;BME280;28233;55.748;48.752;2023-12-07T03:28:56;101337.53;;;-17.18;85.42
42603;BME280;28233;55.748;48.752;2023-12-07T03:30:58;101339.41;;;-17.20;84.86
42603;BME280;28233;55.748;48.752;2023-12-07T03:33:01;101338.44;;;-17.19;85.59
42603;BME280;28233;55.748;48.752;2023-12-07T03:35:05;101334.22;;;-17.22;85.29
42603;BME280;28233;55.748;48.752;2023-12-07T03:37:07;101328.97;;;-17.22;85.28
42603;BME280;28233;55.748;48.752;2023-12-07T03:39:10;101337.81;;;-17.23;85.19
42603;BME280;28233;55.748;48.752;2023-12-07T03:41:13;101342.19;;;-17.23;85.71
42603;BME280;28233;55.748;48.752;2023-12-07T03:43:18;101339.91;;;-17.28;84.72
42603;BME280;28233;55.748;48.752;2023-12-07T03:45:22;101332.94;;;-17.29;84.83
42603;BME280;28233;55.748;48.752;2023-12-07T03:47:25;101347.94;;;-17.31;84.92
42603;BME280;28233;55.748;48.752;2023-12-07T03:49:28;101341.94;;;-17.33;85.36
42603;BME280;28233;55.748;48.752;2023-12-07T03:51:31;101336.69;;;-17.33;85.30
42603;BME280;28233;55.748;48.752;2023-12-07T03:53:33;101334.06;;;-17.33;85.58
42603;BME280;28233;55.748;48.752;2023-12-07T03:55:36;101337.56;;;-17.33;85.79
42603;BME280;28233;55.748;48.752;2023-12-07T03:57:40;101336.69;;;-17.33;85.59
42603;BME280;28233;55.748;48.752;2023-12-07T03:59:43;101343.75;;;-17.34;85.42
42603;BME280;28233;55.748;48.752;2023-12-07T04:01:46;101338.56;;;-17.35;85.23
42603;BME280;28233;55.748;48.752;2023-12-07T04:03:49;101343.94;;;-17.37;85.18
42603;BME280;28233;55.748;48.752;2023-12-07T04:05:52;101350.97;;;-17.37;85.13
42603;BME280;28233;55.748;48.752;2023-12-07T04:07:55;101345.81;;;-17.39;85.34
42603;BME280;28233;55.748;48.752;2023-12-07T04:09:58;101345.16;;;-17.42;84.95
42603;BME280;28233;55.748;48.752;2023-12-07T04:12:01;101356.41;;;-17.40;85.27
42603;BME280;28233;55.748;48.752;2023-12-07T04:14:04;101349.47;;;-17.41;84.98
42603;BME280;28233;55.748;48.752;2023-12-07T04:16:08;101361.66;;;-17.40;85.50
42603;BME280;28233;55.748;48.752;2023-12-07T04:18:12;101364.28;;;-17.40;85.31
42603;BME280;28233;55.748;48.752;2023-12-07T04:20:15;101373.97;;;-17.41;85.64
42603;BME280;28233;55.748;48.752;2023-12-07T04:22:18;101367.03;;;-17.42;85.17
42603;BME280;28233;55.748;48.752;2023-12-07T04:24:20;101372.38;;;-17.43;84.92
42603;BME280;28233;55.748;48.752;2023-12-07T04:26:23;101383.09;;;-17.47;85.17
42603;BME280;28233;55.748;48.752;2023-12-07T04:28:26;101376.13;;;-17.48;85.37
42603;BME280;28233;55.748;48.752;2023-12-07T04:30:29;101383.25;;;-17.50;85.02
42603;BME280;28233;55.748;48.752;2023-12-07T04:32:32;101385.13;;;-17.52;85.31
42603;BME280;28233;55.748;48.752;2023-12-07T04:34:35;101385.88;;;-17.50;85.34
42603;BME280;28233;55.748;48.752;2023-12-07T04:36:38;101379.03;;;-17.52;85.06
42603;BME280;28233;55.748;48.752;2023-12-07T04:38:41;101380.28;;;-17.58;84.07
42603;BME280;28233;55.748;48.752;2023-12-07T04:40:43;101388.63;;;-17.65;83.93
42603;BME280;28233;55.748;48.752;2023-12-07T04:42:46;101389.00;;;-17.72;83.41
42603;BME280;28233;55.748;48.752;2023-12-07T04:44:49;101391.91;;;-17.76;84.04
42603;BME280;28233;55.748;48.752;2023-12-07T04:46:52;101387.78;;;-17.80;83.70
42603;BME280;28233;55.748;48.752;2023-12-07T04:48:55;101386.94;;;-17.81;84.05
42603;BME280;28233;55.748;48.752;2023-12-07T04:50:58;101396.81;;;-17.84;83.64
42603;BME280;28233;55.748;48.752;2023-12-07T04:53:01;101394.34;;;-17.87;83.96
42603;BME280;28233;55.748;48.752;2023-12-07T04:55:04;101391.16;;;-17.93;83.88
42603;BME280;28233;55.748;48.752;2023-12-07T04:57:10;101394.75;;;-17.94;83.80
42603;BME280;28233;55.748;48.752;2023-12-07T04:59:12;101397.53;;;-17.97;83.52
42603;BME280;28233;55.748;48.752;2023-12-07T05:01:15;101411.03;;;-18.03;83.04
42603;BME280;28233;55.748;48.752;2023-12-07T05:03:18;101404.28;;;-18.07;83.06
42603;BME280;28233;55.748;48.752;2023-12-07T05:05:22;101400.25;;;-18.13;82.46
42603;BME280;28233;55.748;48.752;2023-12-07T05:07:27;101410.81;;;-18.14;82.73
42603;BME280;28233;55.748;48.752;2023-12-07T05:09:30;101416.25;;;-18.17;82.38
42603;BME280;28233;55.748;48.752;2023-12-07T05:11:33;101415.56;;;-18.21;82.16
42603;BME280;28233;55.748;48.752;2023-12-07T05:13:36;101415.00;;;-18.26;81.89
42603;BME280;28233;55.748;48.752;2023-12-07T05:15:39;101419.41;;;-18.26;81.75
42603;BME280;28233;55.748;48.752;2023-12-07T05:17:42;101410.59;;;-18.25;82.50
42603;BME280;28233;55.748;48.752;2023-12-07T05:19:45;101413.97;;;-18.23;82.15
42603;BME280;28233;55.748;48.752;2023-12-07T05:21:48;101422.81;;;-18.24;82.15
42603;BME280;28233;55.748;48.752;2023-12-07T05:23:51;101414.31;;;-18.29;81.91
42603;BME280;28233;55.748;48.752;2023-12-07T05:25:54;101418.66;;;-18.28;82.08
42603;BME280;28233;55.748;48.752;2023-12-07T05:27:57;101422.19;;;-18.29;82.24
42603;BME280;28233;55.748;48.752;2023-12-07T05:30:00;101429.72;;;-18.23;82.64
42603;BME280;28233;55.748;48.752;2023-12-07T05:32:06;101430.56;;;-18.23;82.46
42603;BME280;28233;55.748;48.752;2023-12-07T05:34:09;101431.25;;;-18.19;83.06
42603;BME280;28233;55.748;48.752;2023-12-07T05:36:12;101433.50;;;-18.13;82.78
42603;BME280;28233;55.748;48.752;2023-12-07T05:38:15;101436.72;;;-18.08;83.08
42603;BME280;28233;55.748;48.752;2023-12-07T05:40:18;101442.53;;;-18.03;82.81
42603;BME280;28233;55.748;48.752;2023-12-07T05:42:21;101443.84;;;-17.96;82.46
42603;BME280;28233;55.748;48.752;2023-12-07T05:44:24;101441.59;;;-17.87;82.82
42603;BME280;28233;55.748;48.752;2023-12-07T05:46:27;101426.03;;;-17.91;81.89
42603;BME280;28233;55.748;48.752;2023-12-07T05:48:30;101436.91;;;-17.82;82.22
42603;BME280;28233;55.748;48.752;2023-12-07T05:50:33;101438.50;;;-17.80;81.63
42603;BME280;28233;55.748;48.752;2023-12-07T05:52:36;101447.13;;;-17.78;81.48
42603;BME280;28233;55.748;48.752;2023-12-07T05:54:39;101442.53;;;-17.74;81.22
42603;BME280;28233;55.748;48.752;2023-12-07T05:56:44;101452.69;;;-17.68;81.14
42603;BME280;28233;55.748;48.752;2023-12-07T05:58:49;101442.81;;;-17.64;81.38
42603;BME280;28233;55.748;48.752;2023-12-07T06:00:51;101443.31;;;-17.58;81.08
42603;BME280;28233;55.748;48.752;2023-12-07T06:02:54;101447.31;;;-17.52;81.31
42603;BME280;28233;55.748;48.752;2023-12-07T06:04:57;101455.69;;;-17.45;81.07
42603;BME280;28233;55.748;48.752;2023-12-07T06:07:00;101449.31;;;-17.41;80.75
42603;BME280;28233;55.748;48.752;2023-12-07T06:09:03;101452.50;;;-17.36;80.57
42603;BME280;28233;55.748;48.752;2023-12-07T06:11:08;101444.34;;;-17.32;80.42
42603;BME280;28233;55.748;48.752;2023-12-07T06:13:12;101456.34;;;-17.28;80.25
42603;BME280;28233;55.748;48.752;2023-12-07T06:15:16;101451.84;;;-17.26;79.88
42603;BME280;28233;55.748;48.752;2023-12-07T06:17:19;101451.72;;;-17.24;79.88
42603;BME280;28233;55.748;48.752;2023-12-07T06:19:23;101461.69;;;-17.15;79.68
42603;BME280;28233;55.748;48.752;2023-12-07T06:21:26;101455.28;;;-17.11;79.25
42603;BME280;28233;55.748;48.752;2023-12-07T06:23:32;101465.59;;;-17.08;79.34
42603;BME280;28233;55.748;48.752;2023-12-07T06:25:36;101460.19;;;-17.05;78.78
42603;BME280;28233;55.748;48.752;2023-12-07T06:27:39;101459.31;;;-17.05;78.52
42603;BME280;28233;55.748;48.752;2023-12-07T06:29:42;101467.13;;;-17.03;78.25
42603;BME280;28233;55.748;48.752;2023-12-07T06:31:44;101461.19;;;-17.07;78.10
42603;BME280;28233;55.748;48.752;2023-12-07T06:33:47;101467.41;;;-17.08;77.83
42603;BME280;28233;55.748;48.752;2023-12-07T06:35:51;101464.78;;;-17.08;78.00
42603;BME280;28233;55.748;48.752;2023-12-07T06:37:54;101472.47;;;-17.05;77.70
42603;BME280;28233;55.748;48.752;2023-12-07T06:39:57;101466.91;;;-17.00;77.77
42603;BME280;28233;55.748;48.752;2023-12-07T06:42:01;101475.47;;;-16.97;77.19
42603;BME280;28233;55.748;48.752;2023-12-07T06:44:04;101484.09;;;-16.95;77.47
42603;BME280;28233;55.748;48.752;2023-12-07T06:46:07;101477.91;;;-16.94;76.80
42603;BME280;28233;55.748;48.752;2023-12-07T06:48:10;101476.09;;;-16.93;77.28
42603;BME280;28233;55.748;48.752;2023-12-07T06:50:14;101475.19;;;-16.92;76.90
42603;BME280;28233;55.748;48.752;2023-12-07T06:52:18;101482.03;;;-16.90;76.78
42603;BME280;28233;55.748;48.752;2023-12-07T06:54:21;101478.28;;;-16.86;76.86
42603;BME280;28233;55.748;48.752;2023-12-07T06:56:24;101489.44;;;-16.82;77.03
42603;BME280;28233;55.748;48.752;2023-12-07T06:58:28;101478.59;;;-16.77;76.63
42603;BME280;28233;55.748;48.752;2023-12-07T07:00:32;101480.09;;;-16.73;76.79
42603;BME280;28233;55.748;48.752;2023-12-07T07:02:36;101482.59;;;-16.72;76.83
42603;BME280;28233;55.748;48.752;2023-12-07T07:04:39;101495.47;;;-16.67;76.21
42603;BME280;28233;55.748;48.752;2023-12-07T07:06:42;101482.78;;;-16.61;77.03
42603;BME280;28233;55.748;48.752;2023-12-07T07:08:45;101495.75;;;-16.57;76.30
42603;BME280;28233;55.748;48.752;2023-12-07T07:10:48;101498.25;;;-16.56;75.96
42603;BME280;28233;55.748;48.752;2023-12-07T07:12:51;101500.13;;;-16.58;75.94
42603;BME280;28233;55.748;48.752;2023-12-07T07:14:55;101497.34;;;-16.55;76.18
42603;BME280;28233;55.748;48.752;2023-12-07T07:17:00;101503.22;;;-16.51;76.30
42603;BME280;28233;55.748;48.752;2023-12-07T07:19:03;101505.56;;;-16.47;76.60
42603;BME280;28233;55.748;48.752;2023-12-07T07:21:07;101499.38;;;-16.46;76.16
42603;BME280;28233;55.748;48.752;2023-12-07T07:23:09;101505.28;;;-16.42;76.41
42603;BME280;28233;55.748;48.752;2023-12-07T07:25:13;101507.16;;;-16.44;75.67
42603;BME280;28233;55.748;48.752;2023-12-07T07:27:17;101514.88;;;-16.41;75.76
42603;BME280;28233;55.748;48.752;2023-12-07T07:29:20;101513.81;;;-16.38;74.94
42603;BME280;28233;55.748;48.752;2023-12-07T07:31:23;101515.28;;;-16.34;75.96
42603;BME280;28233;55.748;48.752;2023-12-07T07:33:26;101513.41;;;-16.32;75.48
42603;BME280;28233;55.748;48.752;2023-12-07T07:35:29;101510.47;;;-16.28;75.43
42603;BME280;28233;55.748;48.752;2023-12-07T07:37:33;101507.56;;;-16.23;75.50
42603;BME280;28233;55.748;48.752;2023-12-07T07:39:36;101516.84;;;-16.17;75.46
42603;BME280;28233;55.748;48.752;2023-12-07T07:41:39;101503.03;;;-16.21;75.09
42603;BME280;28233;55.748;48.752;2023-12-07T07:43:41;101509.88;;;-16.19;74.86
42603;BME280;28233;55.748;48.752;2023-12-07T07:45:46;101507.16;;;-16.17;74.94
42603;BME280;28233;55.748;48.752;2023-12-07T07:47:49;101504.63;;;-16.19;75.09
42603;BME280;28233;55.748;48.752;2023-12-07T07:49:52;101497.38;;;-16.15;74.83
42603;BME280;28233;55.748;48.752;2023-12-07T07:51:55;101507.72;;;-16.12;74.77
42603;BME280;28233;55.748;48.752;2023-12-07T07:53:59;101499.50;;;-16.07;75.33
42603;BME280;28233;55.748;48.752;2023-12-07T07:56:02;101501.09;;;-16.05;74.90
42603;BME280;28233;55.748;48.752;2023-12-07T07:58:05;101503.63;;;-16.03;74.75
42603;BME280;28233;55.748;48.752;2023-12-07T08:00:09;101497.31;;;-16.01;74.89
42603;BME280;28233;55.748;48.752;2023-12-07T08:02:12;101500.69;;;-15.99;74.25
42603;BME280;28233;55.748;48.752;2023-12-07T08:04:15;101504.91;;;-15.96;73.98
42603;BME280;28233;55.748;48.752;2023-12-07T08:06:18;101510.06;;;-15.94;74.55
42603;BME280;28233;55.748;48.752;2023-12-07T08:08:21;101512.50;;;-15.91;74.15
42603;BME280;28233;55.748;48.752;2023-12-07T08:10:24;101500.09;;;-15.89;74.65
42603;BME280;28233;55.748;48.752;2023-12-07T08:12:27;101518.09;;;-15.83;74.86
42603;BME280;28233;55.748;48.752;2023-12-07T08:14:29;101515.16;;;-15.79;74.25
42603;BME280;28233;55.748;48.752;2023-12-07T08:16:32;101506.13;;;-15.74;74.23
42603;BME280;28233;55.748;48.752;2023-12-07T08:18:35;101506.84;;;-15.72;73.77
42603;BME280;28233;55.748;48.752;2023-12-07T08:20:38;101513.56;;;-15.68;74.27
42603;BME280;28233;55.748;48.752;2023-12-07T08:22:41;101520.31;;;-15.64;74.11
42603;BME280;28233;55.748;48.752;2023-12-07T08:24:45;101522.63;;;-15.60;74.43
42603;BME280;28233;55.748;48.752;2023-12-07T08:26:56;101524.97;;;-15.55;73.57
42603;BME280;28233;55.748;48.752;2023-12-07T08:28:59;101521.28;;;-15.52;73.89
42603;BME280;28233;55.748;48.752;2023-12-07T08:31:02;101517.59;;;-15.50;73.79
42603;BME280;28233;55.748;48.752;2023-12-07T08:33:04;101520.97;;;-15.48;74.13
42603;BME280;28233;55.748;48.752;2023-12-07T08:35:07;101514.53;;;-15.44;74.05
42603;BME280;28233;55.748;48.752;2023-12-07T08:37:11;101524.56;;;-15.36;74.10
42603;BME280;28233;55.748;48.752;2023-12-07T08:39:14;101523.50;;;-15.34;73.45
42603;BME280;28233;55.748;48.752;2023-12-07T08:41:16;101521.50;;;-15.30;73.97
42603;BME280;28233;55.748;48.752;2023-12-07T08:43:23;101529.19;;;-15.27;73.34
42603;BME280;28233;55.748;48.752;2023-12-07T08:45:27;101532.25;;;-15.20;73.60
42603;BME280;28233;55.748;48.752;2023-12-07T08:47:29;101530.25;;;-15.17;72.89
42603;BME280;28233;55.748;48.752;2023-12-07T08:49:34;101535.34;;;-15.14;72.58
42603;BME280;28233;55.748;48.752;2023-12-07T08:51:37;101526.59;;;-15.14;72.39
42603;BME280;28233;55.748;48.752;2023-12-07T08:53:40;101532.56;;;-15.12;72.29
42603;BME280;28233;55.748;48.752;2023-12-07T08:55:43;101526.97;;;-15.07;72.55
42603;BME280;28233;55.748;48.752;2023-12-07T08:57:46;101539.09;;;-15.05;72.79
42603;BME280;28233;55.748;48.752;2023-12-07T08:59:49;101533.50;;;-15.00;73.05
42603;BME280;28233;55.748;48.752;2023-12-07T09:01:52;101523.81;;;-15.00;72.50
42603;BME280;28233;55.748;48.752;2023-12-07T09:03:55;101524.56;;;-14.98;72.16
42603;BME280;28233;55.748;48.752;2023-12-07T09:05:59;101533.19;;;-14.96;71.62
42603;BME280;28233;55.748;48.752;2023-12-07T09:08:03;101532.13;;;-14.93;72.30
42603;BME280;28233;55.748;48.752;2023-12-07T09:10:06;101520.53;;;-14.91;72.61
42603;BME280;28233;55.748;48.752;2023-12-07T09:12:11;101528.97;;;-14.85;72.20
42603;BME280;28233;55.748;48.752;2023-12-07T09:14:14;101526.00;;;-14.81;72.20
42603;BME280;28233;55.748;48.752;2023-12-07T09:16:17;101530.31;;;-14.80;72.02
42603;BME280;28233;55.748;48.752;2023-12-07T09:18:20;101528.44;;;-14.78;71.77
42603;BME280;28233;55.748;48.752;2023-12-07T09:20:23;101527.25;;;-14.74;72.46
42603;BME280;28233;55.748;48.752;2023-12-07T09:22:25;101527.13;;;-14.72;72.01
42603;BME280;28233;55.748;48.752;2023-12-07T09:24:39;101535.06;;;-14.72;71.87
42603;BME280;28233;55.748;48.752;2023-12-07T09:26:42;101532.63;;;-14.75;71.51
42603;BME280;28233;55.748;48.752;2023-12-07T09:28:46;101531.91;;;-14.77;71.75
42603;BME280;28233;55.748;48.752;2023-12-07T09:30:49;101532.88;;;-14.78;71.45
42603;BME280;28233;55.748;48.752;2023-12-07T09:32:52;101533.72;;;-14.78;71.35
42603;BME280;28233;55.748;48.752;2023-12-07T09:34:54;101525.56;;;-14.75;70.74
42603;BME280;28233;55.748;48.752;2023-12-07T09:37:07;101543.94;;;-14.73;71.00
42603;BME280;28233;55.748;48.752;2023-12-07T09:39:11;101530.84;;;-14.75;70.85
42603;BME280;28233;55.748;48.752;2023-12-07T09:41:14;101523.25;;;-14.79;70.91
42603;BME280;28233;55.748;48.752;2023-12-07T09:43:17;101538.16;;;-14.78;71.21
42603;BME280;28233;55.748;48.752;2023-12-07T09:45:21;101535.50;;;-14.78;70.68
42603;BME280;28233;55.748;48.752;2023-12-07T09:47:27;101534.53;;;-14.77;71.11
42603;BME280;28233;55.748;48.752;2023-12-07T09:49:39;101541.28;;;-14.73;71.36
42603;BME280;28233;55.748;48.752;2023-12-07T09:51:43;101545.28;;;-14.67;71.40
42603;BME280;28233;55.748;48.752;2023-12-07T09:53:48;101547.00;;;-14.66;71.24
42603;BME280;28233;55.748;48.752;2023-12-07T09:55:54;101550.13;;;-14.61;71.44
42603;BME280;28233;55.748;48.752;2023-12-07T09:57:57;101546.44;;;-14.59;71.31
42603;BME280;28233;55.748;48.752;2023-12-07T10:00:00;101545.69;;;-14.61;70.92
42603;BME280;28233;55.748;48.752;2023-12-07T10:02:06;101552.78;;;-14.61;71.20
42603;BME280;28233;55.748;48.752;2023-12-07T10:04:28;101553.75;;;-14.62;71.45
42603;BME280;28233;55.748;48.752;2023-12-07T10:06:51;101548.34;;;-14.61;71.79
42603;BME280;28233;55.748;48.752;2023-12-07T10:09:03;101554.69;;;-14.63;71.44
42603;BME280;28233;55.748;48.752;2023-12-07T10:11:10;101554.25;;;-14.70;71.25
42603;BME280;28233;55.748;48.752;2023-12-07T10:13:15;101551.00;;;-14.74;71.18
42603;BME280;28233;55.748;48.752;2023-12-07T10:15:19;101557.13;;;-14.73;71.37
42603;BME280;28233;55.748;48.752;2023-12-07T10:17:23;101565.28;;;-14.76;71.72
42603;BME280;28233;55.748;48.752;2023-12-07T10:19:26;101559.25;;;-14.78;70.96
42603;BME280;28233;55.748;48.752;2023-12-07T10:21:34;101556.94;;;-14.83;71.17
42603;BME280;28233;55.748;48.752;2023-12-07T10:23:37;101562.94;;;-14.81;71.48
42603;BME280;28233;55.748;48.752;2023-12-07T10:25:42;101555.13;;;-14.82;71.80
42603;BME280;28233;55.748;48.752;2023-12-07T10:27:45;101562.09;;;-14.81;71.80
42603;BME280;28233;55.748;48.752;2023-12-07T10:29:49;101551.13;;;-14.75;72.15
42603;BME280;28233;55.748;48.752;2023-12-07T10:32:00;101555.31;;;-14.73;71.86